Aérodrome :
LOGIN :

S'inscrire | Disclaimer

   EN    FR    IT 

 










Légende :    VFR   VFR Marginal   IFR   IFR Intensif   IFR Très Intensif
Visi : 
Plafond : 
>= 8 km
>= 3000ft
5 à 8 km
1000 à 3000 ft
1500m à 5 km
500 à 1000 ft
800 à 1500m
200 à 500 ft
< 800m
< 200 ft
Symboles :   Orages  Brouillard  Fortes neiges  Fortes précipitations  Vent > 20 kt
SIGMETs :   Divers  Orages  Givrage  Turbulence  Onde Orograph.  Cendres Volcan.







- Altitude de l'aérodrome : 218 ft
- Code IATA : LBG
- Voir les cartes d'approche


LFPB - Paris / Le Bourget

DERNIER METAR :
  • 281200Z AUTO 20010KT 140V250 9999 FEW005/// SCT039/// BKN062/// ///CB 22/15 Q0997 TEMPO 25015G25KT 2500 -TSRA

METARs EXPIRÉS :
  • 281130Z AUTO 26009KT 230V300 9999 BKN046/// BKN058/// BKN074/// ///CB 22/13 Q0997 TEMPO 25015G25KT 2500 -TSRA
  • 281100Z AUTO 25009KT 210V280 9999 BKN042 BKN048 BKN062 24/13 Q0998 TEMPO 2000 -TSRA SCT030CB
  • 281030Z AUTO 22009KT 190V270 9999 BKN042 BKN062 23/13 Q0998 TEMPO 2000 -TSRA SCT030CB
  • 281000Z AUTO 23009KT 210V270 9999 FEW001 SCT036 BKN044 23/14 Q0998 TEMPO 2000 -TSRA SCT030CB
  • 280930Z AUTO 23011KT 9999 BKN034 BKN040 22/14 Q0998 TEMPO 2000 -TSRA SCT030CB

TAF TAF LFPB
Valide du 28 à 12h jusqu'au 29 à 12h UTC


281100Z 2812/2912 22010KT 9999 FEW040TCU
PROB40
TEMPO 2812/2818 25015G25KT 2500 -TSRA SCT030CB
BECMG 2820/2822 SCT020
PROB30
TEMPO 2900/2907 BKN012
BECMG 2908/2910 FEW025TCU SCT030
ATIS : +33 1 48 62 43 92
Pas de NOTAMs connus pour ce terrain.



MET'MAP, la Météo Aéronautique d'un coup d'oeil ! - Copyright ORBIFLY Décembre 2007 - Disclaimer

ORBIFLY MET'MAP TEAM :

Programmation & Développement : Alexandra Zaïnal
Conception & Développement : Baudouin d'Aumeries
Co-Programmation & Développement : Marc-Olivier Méhu
Soutien technique & logistique : Manuel Goepfert

Contact : metmap@orbifly.com




SOURCES & CREDITS :

   NOAA